Time;durP1;ratioP1;P1;durP2;ratioP2;P2;SDS_P1;SDS_P2;PMS_P1;PMS_P2;Temp;Humidity;BMP_temperature;BMP_pressure;BME280_temperature;BME280_humidity;BME280_pressure;Samples;Min_cycle;Max_cycle;Signal;HPM_P1;HPM_P2
2022/10/16 00:01:30;;;;;;;;;;;12.10;99.90;;;;;;6116437;23;19925;-62
2022/10/16 00:03:57;;;;;;;;;;;12.00;99.90;;;;;;6116498;23;19931;-63
2022/10/16 00:06:23;;;;;;;;;;;12.00;99.90;;;;;;6116636;23;20293;-62
2022/10/16 00:08:49;;;;;;;;;;;11.90;99.90;;;;;;6115951;23;20030;-62
2022/10/16 00:11:16;;;;;;;;;;;11.90;99.90;;;;;;6116949;23;19971;-62
2022/10/16 00:13:42;;;;;;;;;;;12.20;99.90;;;;;;6116478;23;19924;-63
2022/10/16 00:16:08;;;;;;;;;;;12.00;99.90;;;;;;6116850;23;19936;-62
2022/10/16 00:18:34;;;;;;;;;;;12.00;99.90;;;;;;6116700;23;19925;-62
2022/10/16 00:21:05;;;;;;;;;;;12.00;99.90;;;;;;6116580;23;19932;-62
2022/10/16 00:23:31;;;;;;;;;;;12.00;99.90;;;;;;6116191;23;20390;-62
2022/10/16 00:25:57;;;;;;;;;;;12.00;99.90;;;;;;6116734;23;19929;-62
2022/10/16 00:28:23;;;;;;;;;;;11.90;99.90;;;;;;6116281;23;19925;-62
2022/10/16 00:30:49;;;;;;;;;;;11.90;99.90;;;;;;6116126;23;19929;-62
2022/10/16 00:33:14;;;;;;;;;;;12.00;99.90;;;;;;6117104;23;19925;-62
2022/10/16 00:35:40;;;;;;;;;;;11.90;99.90;;;;;;6116390;23;20331;-62
2022/10/16 00:38:05;;;;;;;;;;;11.90;99.90;;;;;;6116110;23;19933;-62
2022/10/16 00:40:31;;;;;;;;;;;11.90;99.90;;;;;;6116542;23;19932;-63
2022/10/16 00:42:57;;;;;;;;;;;12.00;99.90;;;;;;6114478;23;19932;-62
2022/10/16 00:45:22;;;;;;;;;;;12.10;99.90;;;;;;6115879;23;19925;-62
2022/10/16 00:47:51;;;;;;;;;;;11.90;99.90;;;;;;6116594;23;19982;-62
2022/10/16 00:50:21;;;;;;;;;;;11.90;99.90;;;;;;6116475;23;19925;-62
2022/10/16 00:52:48;;;;;;;;;;;11.90;99.90;;;;;;6116796;23;19952;-62
2022/10/16 00:55:14;;;;;;;;;;;12.00;99.90;;;;;;6116001;23;20351;-63
2022/10/16 00:57:41;;;;;;;;;;;12.00;99.90;;;;;;6116675;23;19932;-63
2022/10/16 01:00:08;;;;;;;;;;;13.30;99.90;;;;;;6116299;23;19961;-63
2022/10/16 01:02:34;;;;;;;;;;;12.00;99.90;;;;;;6115888;23;19925;-63
2022/10/16 01:05:00;;;;;;;;;;;12.00;99.90;;;;;;6115789;23;19932;-62
2022/10/16 01:07:39;;;;;;;;;;;12.00;99.90;;;;;;6116646;23;20019;-62
2022/10/16 01:10:17;;;;;;;;;;;12.00;99.90;;;;;;6116050;23;19979;-62
2022/10/16 01:12:59;;;;;;;;;;;12.00;99.90;;;;;;6116674;23;19960;-62
2022/10/16 01:15:26;;;;;;;;;;;12.00;99.90;;;;;;6115732;23;20505;-62
2022/10/16 01:18:12;;;;;;;;;;;12.00;99.90;;;;;;6116419;23;19925;-62
2022/10/16 01:21:01;;;;;;;;;;;12.00;99.90;;;;;;6117927;23;19925;-66
2022/10/16 01:23:29;;;;;;;;;;;12.00;99.90;;;;;;6119296;23;19925;-64
2022/10/16 01:26:10;;;;;;;;;;;12.00;99.90;;;;;;6116114;23;19932;-66
2022/10/16 01:28:54;;;;;;;;;;;12.00;99.90;;;;;;6116239;23;19970;-64
2022/10/16 01:31:22;;;;;;;;;;;12.00;99.90;;;;;;6116144;23;19942;-69
2022/10/16 01:33:51;;;;;;;;;;;12.00;99.90;;;;;;6115927;23;19924;-66
2022/10/16 01:36:20;;;;;;;;;;;12.00;99.90;;;;;;6115149;23;20015;-63
2022/10/16 01:38:47;;;;;;;;;;;13.60;99.90;;;;;;6113802;23;19924;-63
2022/10/16 01:41:15;;;;;;;;;;;12.00;99.90;;;;;;6116183;23;19960;-64
2022/10/16 01:44:07;;;;;;;;;;;11.90;99.90;;;;;;6115457;23;20259;-64
2022/10/16 01:46:35;;;;;;;;;;;11.90;99.90;;;;;;6126588;23;19932;-63
2022/10/16 01:49:02;;;;;;;;;;;12.00;99.90;;;;;;6115530;23;19978;-64
2022/10/16 01:51:28;;;;;;;;;;;12.00;99.90;;;;;;6115610;23;19925;-65
2022/10/16 01:53:55;;;;;;;;;;;12.00;99.90;;;;;;6114090;23;19932;-63
2022/10/16 01:56:22;;;;;;;;;;;12.00;99.90;;;;;;6115474;23;19932;-64
2022/10/16 01:58:54;;;;;;;;;;;12.10;99.90;;;;;;6115466;23;19925;-63
2022/10/16 02:01:20;;;;;;;;;;;12.00;99.90;;;;;;6115703;23;19952;-64
2022/10/16 02:03:46;;;;;;;;;;;12.10;99.90;;;;;;6115825;23;20007;-63
2022/10/16 02:06:12;;;;;;;;;;;12.00;99.90;;;;;;6115570;23;19952;-67
2022/10/16 02:08:38;;;;;;;;;;;12.10;99.90;;;;;;6115757;23;19924;-64
2022/10/16 02:11:04;;;;;;;;;;;12.10;99.90;;;;;;6116061;23;19925;-65
2022/10/16 02:13:32;;;;;;;;;;;12.10;99.90;;;;;;6115312;23;19925;-67
2022/10/16 02:15:58;;;;;;;;;;;12.10;99.90;;;;;;6115455;23;19971;-62
2022/10/16 02:18:28;;;;;;;;;;;12.50;99.90;;;;;;6114939;23;19925;-63
2022/10/16 02:21:04;;;;;;;;;;;12.10;99.90;;;;;;6115688;23;19925;-63
2022/10/16 02:23:30;;;;;;;;;;;12.10;99.90;;;;;;6115382;23;19925;-63
2022/10/16 02:25:56;;;;;;;;;;;12.20;99.90;;;;;;6115681;23;19999;-63
2022/10/16 02:28:24;;;;;;;;;;;12.10;99.90;;;;;;6114990;23;19953;-63
2022/10/16 02:30:56;;;;;;;;;;;12.10;99.90;;;;;;6115094;23;19929;-63
2022/10/16 02:33:22;;;;;;;;;;;12.10;99.90;;;;;;6115881;23;19962;-62
2022/10/16 02:35:48;;;;;;;;;;;12.10;99.90;;;;;;6115725;23;19931;-63
2022/10/16 02:38:14;;;;;;;;;;;12.10;99.90;;;;;;6114609;23;19925;-62
2022/10/16 02:40:40;;;;;;;;;;;12.20;99.90;;;;;;6114948;23;20323;-62
2022/10/16 02:43:06;;;;;;;;;;;12.20;99.90;;;;;;6115321;23;19932;-62
2022/10/16 02:45:32;;;;;;;;;;;12.20;99.90;;;;;;6114721;23;19929;-62
2022/10/16 02:47:57;;;;;;;;;;;12.40;99.90;;;;;;6113677;23;19925;-62
2022/10/16 02:50:24;;;;;;;;;;;12.60;99.90;;;;;;6115375;23;19928;-62
2022/10/16 02:52:49;;;;;;;;;;;12.30;99.90;;;;;;6114984;23;19929;-63
2022/10/16 02:55:15;;;;;;;;;;;12.30;99.90;;;;;;6115761;23;20259;-62
2022/10/16 02:57:40;;;;;;;;;;;12.30;99.90;;;;;;6114779;23;19932;-62
2022/10/16 03:00:07;;;;;;;;;;;12.40;99.90;;;;;;6115691;23;19929;-62
2022/10/16 03:02:33;;;;;;;;;;;12.30;99.90;;;;;;6116078;23;20362;-62
2022/10/16 03:04:58;;;;;;;;;;;12.30;99.90;;;;;;6115404;23;19936;-62
2022/10/16 03:07:24;;;;;;;;;;;12.40;99.90;;;;;;6115674;23;19924;-62
2022/10/16 03:09:50;;;;;;;;;;;12.40;99.90;;;;;;6116134;23;20347;-62
2022/10/16 03:12:15;;;;;;;;;;;12.40;99.90;;;;;;6116690;23;19934;-62
2022/10/16 03:14:41;;;;;;;;;;;12.40;99.90;;;;;;6116381;23;19993;-62
2022/10/16 03:17:06;;;;;;;;;;;12.50;99.90;;;;;;6116224;23;19925;-62
2022/10/16 03:19:32;;;;;;;;;;;12.50;99.90;;;;;;6114351;23;19925;-62
2022/10/16 03:21:57;;;;;;;;;;;12.50;99.90;;;;;;6116275;23;19979;-63
2022/10/16 03:24:23;;;;;;;;;;;12.50;99.90;;;;;;6116190;23;19925;-62
2022/10/16 03:26:48;;;;;;;;;;;12.60;99.90;;;;;;6116519;23;19929;-62
2022/10/16 03:29:14;;;;;;;;;;;12.50;99.90;;;;;;6117127;23;19925;-62
2022/10/16 03:31:39;;;;;;;;;;;12.60;99.90;;;;;;6116785;23;20247;-62
2022/10/16 03:34:05;;;;;;;;;;;12.90;99.90;;;;;;6116788;23;19968;-62
2022/10/16 03:36:31;;;;;;;;;;;12.50;99.90;;;;;;6116582;23;20347;-62
2022/10/16 03:38:56;;;;;;;;;;;12.50;99.90;;;;;;6117144;23;20006;-62
2022/10/16 03:41:22;;;;;;;;;;;12.50;99.90;;;;;;6116836;23;19928;-62
2022/10/16 03:43:47;;;;;;;;;;;12.50;99.90;;;;;;6117045;23;20217;-62
2022/10/16 03:46:13;;;;;;;;;;;12.60;99.90;;;;;;6116134;23;19924;-62
2022/10/16 03:48:39;;;;;;;;;;;12.60;99.90;;;;;;6116557;23;19991;-62
2022/10/16 03:51:05;;;;;;;;;;;12.60;99.90;;;;;;6116933;23;19932;-62
2022/10/16 03:53:30;;;;;;;;;;;12.70;99.90;;;;;;6116974;23;19929;-62
2022/10/16 03:55:56;;;;;;;;;;;12.50;99.90;;;;;;6116441;23;19924;-62
2022/10/16 03:58:22;;;;;;;;;;;12.50;99.90;;;;;;6117283;23;20008;-62
2022/10/16 04:00:48;;;;;;;;;;;12.50;99.90;;;;;;6116059;23;19997;-62
2022/10/16 04:03:13;;;;;;;;;;;12.60;99.90;;;;;;6117388;23;19925;-63
2022/10/16 04:05:39;;;;;;;;;;;12.80;99.90;;;;;;6116685;23;19929;-62
2022/10/16 04:08:05;;;;;;;;;;;12.40;99.90;;;;;;6116767;23;19931;-62
2022/10/16 04:10:30;;;;;;;;;;;12.50;99.90;;;;;;6116379;23;20339;-62
2022/10/16 04:12:56;;;;;;;;;;;12.40;99.90;;;;;;6116890;23;19925;-62
2022/10/16 04:15:25;;;;;;;;;;;12.50;99.90;;;;;;6116578;23;19925;-62
2022/10/16 04:17:50;;;;;;;;;;;12.50;99.90;;;;;;6117021;23;19929;-62
2022/10/16 04:20:16;;;;;;;;;;;12.50;99.90;;;;;;6116404;23;19979;-62
2022/10/16 04:22:42;;;;;;;;;;;12.40;99.90;;;;;;6116933;23;19925;-62
2022/10/16 04:25:07;;;;;;;;;;;12.40;99.90;;;;;;6116850;23;20290;-62
2022/10/16 04:27:33;;;;;;;;;;;12.40;99.90;;;;;;6117025;23;19925;-62
2022/10/16 04:29:59;;;;;;;;;;;12.50;99.90;;;;;;6116847;23;19935;-62
2022/10/16 04:32:25;;;;;;;;;;;12.50;99.90;;;;;;6116734;23;19947;-62
2022/10/16 04:34:51;;;;;;;;;;;12.50;99.90;;;;;;6116079;23;20347;-63
2022/10/16 04:37:16;;;;;;;;;;;12.40;99.90;;;;;;6116387;23;20340;-63
2022/10/16 04:39:42;;;;;;;;;;;12.40;99.90;;;;;;6116731;23;19932;-62
2022/10/16 04:42:08;;;;;;;;;;;12.40;99.90;;;;;;6116646;23;20427;-63
2022/10/16 04:44:33;;;;;;;;;;;12.70;99.90;;;;;;6115661;23;19929;-62
2022/10/16 04:46:59;;;;;;;;;;;12.40;99.90;;;;;;6116196;23;20048;-62
2022/10/16 04:49:24;;;;;;;;;;;12.40;99.90;;;;;;6116730;23;19925;-62
2022/10/16 04:51:50;;;;;;;;;;;12.40;99.90;;;;;;6116725;23;20003;-62
2022/10/16 04:54:15;;;;;;;;;;;12.30;99.90;;;;;;6116590;23;20245;-62
2022/10/16 04:56:46;;;;;;;;;;;12.40;99.90;;;;;;6116246;23;20375;-62
2022/10/16 04:59:13;;;;;;;;;;;12.40;99.90;;;;;;6116679;23;19932;-62
2022/10/16 05:01:39;;;;;;;;;;;12.40;99.90;;;;;;6116655;23;20306;-62
2022/10/16 05:04:05;;;;;;;;;;;12.50;99.90;;;;;;6116758;23;20345;-62
2022/10/16 05:06:30;;;;;;;;;;;12.50;99.90;;;;;;6116569;23;19977;-62
2022/10/16 05:08:56;;;;;;;;;;;12.50;99.90;;;;;;6116248;23;19932;-63
2022/10/16 05:11:21;;;;;;;;;;;12.50;99.90;;;;;;6116289;23;19925;-62
2022/10/16 05:13:47;;;;;;;;;;;12.50;99.90;;;;;;6116429;23;19925;-63
2022/10/16 05:16:12;;;;;;;;;;;12.50;99.90;;;;;;6116036;23;20282;-62
2022/10/16 05:18:38;;;;;;;;;;;12.50;99.90;;;;;;6116365;23;20580;-62
2022/10/16 05:21:03;;;;;;;;;;;12.50;99.90;;;;;;6116040;23;19925;-62
2022/10/16 05:23:29;;;;;;;;;;;12.50;99.90;;;;;;6116062;23;19982;-63
2022/10/16 05:25:55;;;;;;;;;;;12.50;99.90;;;;;;6116407;23;19971;-62
2022/10/16 05:28:21;;;;;;;;;;;12.50;99.90;;;;;;6116629;23;19932;-62
2022/10/16 05:30:46;;;;;;;;;;;12.50;99.90;;;;;;6116148;23;19929;-62
2022/10/16 05:33:13;;;;;;;;;;;12.80;99.90;;;;;;6116223;23;19924;-62
2022/10/16 05:35:38;;;;;;;;;;;12.70;99.90;;;;;;6116344;23;20283;-62
2022/10/16 05:38:04;;;;;;;;;;;12.50;99.90;;;;;;6115743;23;19932;-63
2022/10/16 05:40:29;;;;;;;;;;;12.50;99.90;;;;;;6116353;23;19936;-62
2022/10/16 05:42:55;;;;;;;;;;;12.50;99.90;;;;;;6116797;23;19925;-62
2022/10/16 05:45:21;;;;;;;;;;;12.70;99.90;;;;;;6116281;23;20276;-63
2022/10/16 05:47:46;;;;;;;;;;;12.50;99.90;;;;;;6116218;23;19972;-62
2022/10/16 05:50:12;;;;;;;;;;;12.50;99.90;;;;;;6115595;23;19925;-62
2022/10/16 05:52:37;;;;;;;;;;;12.50;99.90;;;;;;6115910;23;19940;-62
2022/10/16 05:55:03;;;;;;;;;;;12.50;99.90;;;;;;6116040;23;19992;-62
2022/10/16 05:57:29;;;;;;;;;;;12.50;99.90;;;;;;6115562;23;19929;-63
2022/10/16 05:59:55;;;;;;;;;;;12.50;99.90;;;;;;6116414;23;19999;-63
2022/10/16 06:02:20;;;;;;;;;;;12.40;99.90;;;;;;6116375;23;19959;-64
2022/10/16 06:04:46;;;;;;;;;;;12.60;99.90;;;;;;6116021;23;20248;-63
2022/10/16 06:07:11;;;;;;;;;;;12.50;99.90;;;;;;6116021;23;20328;-63
2022/10/16 06:09:37;;;;;;;;;;;12.50;99.90;;;;;;6115267;23;19924;-64
2022/10/16 06:12:04;;;;;;;;;;;12.50;99.90;;;;;;6113646;23;20424;-65
2022/10/16 06:14:29;;;;;;;;;;;12.50;99.90;;;;;;6115354;23;20267;-62
2022/10/16 06:16:55;;;;;;;;;;;12.60;99.90;;;;;;6115742;23;20336;-62
2022/10/16 06:19:20;;;;;;;;;;;12.50;99.90;;;;;;6115545;23;19948;-63
2022/10/16 06:21:46;;;;;;;;;;;12.60;99.90;;;;;;6115537;23;20264;-63
2022/10/16 06:24:12;;;;;;;;;;;12.50;99.90;;;;;;6116010;23;20236;-64
2022/10/16 06:26:38;;;;;;;;;;;12.60;99.90;;;;;;6116026;23;20294;-62
2022/10/16 06:29:03;;;;;;;;;;;12.60;99.90;;;;;;6115889;23;19925;-63
2022/10/16 06:31:30;;;;;;;;;;;12.60;99.90;;;;;;6115426;23;19929;-63
2022/10/16 06:33:57;;;;;;;;;;;12.70;99.90;;;;;;6116074;23;19948;-63
2022/10/16 06:36:23;;;;;;;;;;;13.00;99.90;;;;;;6116734;23;19924;-63
2022/10/16 06:38:49;;;;;;;;;;;12.70;99.90;;;;;;6115100;23;20028;-63
2022/10/16 06:41:15;;;;;;;;;;;12.70;99.90;;;;;;6117266;23;19960;-63
2022/10/16 06:43:41;;;;;;;;;;;12.70;99.90;;;;;;6116869;23;20398;-62
2022/10/16 06:46:09;;;;;;;;;;;12.80;99.90;;;;;;6116894;23;19961;-66
2022/10/16 06:48:35;;;;;;;;;;;12.80;99.90;;;;;;6116764;23;20403;-63
2022/10/16 06:51:00;;;;;;;;;;;12.80;99.90;;;;;;6116035;23;19961;-64
2022/10/16 06:53:27;;;;;;;;;;;12.90;99.90;;;;;;6117152;23;20011;-65
2022/10/16 06:55:52;;;;;;;;;;;13.00;99.90;;;;;;6117010;23;19925;-65
2022/10/16 06:58:18;;;;;;;;;;;13.00;99.90;;;;;;6116687;23;19925;-64
2022/10/16 07:00:44;;;;;;;;;;;13.00;99.90;;;;;;6116722;23;19925;-65
2022/10/16 07:03:09;;;;;;;;;;;13.10;99.90;;;;;;6113543;23;19935;-65
2022/10/16 07:05:38;;;;;;;;;;;13.10;99.90;;;;;;6115947;23;19960;-65
2022/10/16 07:08:05;;;;;;;;;;;13.20;99.90;;;;;;6116507;23;19925;-65
2022/10/16 07:10:31;;;;;;;;;;;13.20;99.90;;;;;;6116031;23;19924;-64
2022/10/16 07:12:57;;;;;;;;;;;13.30;99.90;;;;;;6116634;23;20402;-64
2022/10/16 07:15:22;;;;;;;;;;;13.30;99.90;;;;;;6116228;23;19929;-64
2022/10/16 07:17:48;;;;;;;;;;;13.30;99.90;;;;;;6114515;23;20020;-66
2022/10/16 07:20:13;;;;;;;;;;;13.30;99.90;;;;;;6116199;23;19929;-64
2022/10/16 07:22:39;;;;;;;;;;;13.40;99.90;;;;;;6115584;23;19936;-65
2022/10/16 07:25:05;;;;;;;;;;;13.40;99.90;;;;;;6114781;23;19925;-66
2022/10/16 07:27:30;;;;;;;;;;;13.50;99.90;;;;;;6114763;23;19932;-63
2022/10/16 07:29:56;;;;;;;;;;;13.60;99.90;;;;;;6115579;23;19925;-65
2022/10/16 07:32:21;;;;;;;;;;;13.70;99.90;;;;;;6115654;23;19925;-63
2022/10/16 07:34:47;;;;;;;;;;;13.80;99.90;;;;;;6115510;23;19932;-67
2022/10/16 07:37:12;;;;;;;;;;;13.80;99.90;;;;;;6114687;23;19925;-64
2022/10/16 07:39:38;;;;;;;;;;;13.80;99.90;;;;;;6114474;23;20222;-64
2022/10/16 07:42:03;;;;;;;;;;;13.80;99.90;;;;;;6113054;23;19932;-64
2022/10/16 07:44:29;;;;;;;;;;;13.80;99.90;;;;;;6113819;23;19937;-65
2022/10/16 07:46:54;;;;;;;;;;;13.80;99.90;;;;;;6114443;23;19925;-66
2022/10/16 07:49:20;;;;;;;;;;;13.60;99.90;;;;;;6114115;23;19955;-63
2022/10/16 07:51:45;;;;;;;;;;;13.70;99.90;;;;;;6114453;23;20247;-64
2022/10/16 07:54:11;;;;;;;;;;;13.70;99.90;;;;;;6113009;23;19970;-63
2022/10/16 07:56:37;;;;;;;;;;;13.70;99.90;;;;;;6113269;23;19925;-65
2022/10/16 07:59:02;;;;;;;;;;;13.80;99.90;;;;;;6109263;23;19976;-63
2022/10/16 08:01:28;;;;;;;;;;;13.80;99.90;;;;;;6110242;23;20020;-64
2022/10/16 08:03:53;;;;;;;;;;;13.80;99.90;;;;;;6111865;23;20248;-63
2022/10/16 08:06:20;;;;;;;;;;;13.90;99.90;;;;;;6112066;23;20007;-63
2022/10/16 08:08:46;;;;;;;;;;;14.00;99.90;;;;;;6112206;23;19936;-65
2022/10/16 08:11:11;;;;;;;;;;;13.90;99.90;;;;;;6113597;23;19926;-63
2022/10/16 08:13:37;;;;;;;;;;;14.00;99.90;;;;;;6114528;23;19932;-64
2022/10/16 08:16:07;;;;;;;;;;;14.00;99.90;;;;;;6114898;23;20403;-64
2022/10/16 08:18:34;;;;;;;;;;;14.00;99.90;;;;;;6114606;23;19971;-64
2022/10/16 08:21:00;;;;;;;;;;;14.10;99.90;;;;;;6115472;23;19940;-66
2022/10/16 08:23:26;;;;;;;;;;;14.10;99.90;;;;;;6114676;23;19924;-65
2022/10/16 08:25:55;;;;;;;;;;;14.20;99.90;;;;;;6113331;23;19925;-64
2022/10/16 08:28:21;;;;;;;;;;;14.20;99.90;;;;;;6114005;23;20367;-63
2022/10/16 08:30:47;;;;;;;;;;;14.20;99.90;;;;;;6113984;23;20011;-64
2022/10/16 08:33:12;;;;;;;;;;;14.40;99.90;;;;;;6115429;23;20261;-64
2022/10/16 08:35:38;;;;;;;;;;;14.30;99.90;;;;;;6114922;23;20011;-64
2022/10/16 08:38:04;;;;;;;;;;;14.30;99.90;;;;;;6115898;23;20141;-65
2022/10/16 08:40:34;;;;;;;;;;;14.20;99.90;;;;;;6114539;23;20359;-63
2022/10/16 08:43:02;;;;;;;;;;;14.20;99.90;;;;;;6114463;23;19929;-63
2022/10/16 08:45:34;;;;;;;;;;;14.30;99.90;;;;;;6114500;23;19929;-64
2022/10/16 08:48:26;;;;;;;;;;;14.40;99.90;;;;;;6115574;23;19929;-63
2022/10/16 08:50:52;;;;;;;;;;;14.50;99.90;;;;;;6113821;23;19951;-63
2022/10/16 08:53:23;;;;;;;;;;;14.60;99.90;;;;;;6110272;23;20004;-65
2022/10/16 08:55:53;;;;;;;;;;;14.60;99.90;;;;;;6111350;23;19925;-63
2022/10/16 08:58:20;;;;;;;;;;;14.70;99.90;;;;;;6112452;23;20410;-66
2022/10/16 09:00:47;;;;;;;;;;;14.80;99.90;;;;;;6112853;23;20344;-65
2022/10/16 09:03:24;;;;;;;;;;;14.90;99.90;;;;;;6113401;23;20246;-63
2022/10/16 09:05:53;;;;;;;;;;;15.00;99.90;;;;;;6114506;23;19935;-64
2022/10/16 09:08:24;;;;;;;;;;;15.20;99.90;;;;;;6115113;23;19925;-66
2022/10/16 09:11:07;;;;;;;;;;;15.50;99.90;;;;;;6115299;23;19929;-65
2022/10/16 09:13:32;;;;;;;;;;;15.70;99.90;;;;;;6113984;23;20352;-64
2022/10/16 09:16:01;;;;;;;;;;;15.90;99.90;;;;;;6115248;23;19932;-63
2022/10/16 09:18:34;;;;;;;;;;;16.20;99.90;;;;;;6114800;23;19996;-64
2022/10/16 09:21:05;;;;;;;;;;;16.30;99.90;;;;;;6115738;23;19995;-69
2022/10/16 09:23:34;;;;;;;;;;;16.60;99.90;;;;;;6115446;23;19957;-68
2022/10/16 09:25:59;;;;;;;;;;;17.00;99.90;;;;;;6115646;23;20007;-69
2022/10/16 09:28:25;;;;;;;;;;;17.00;99.90;;;;;;6115280;23;20307;-65
2022/10/16 09:30:51;;;;;;;;;;;17.20;99.90;;;;;;6111054;23;19967;-67
2022/10/16 09:33:22;;;;;;;;;;;17.10;99.90;;;;;;6113559;23;20251;-65
2022/10/16 09:35:51;;;;;;;;;;;17.20;99.90;;;;;;6115160;23;19929;-64
2022/10/16 09:38:28;;;;;;;;;;;16.90;99.90;;;;;;6114604;23;20014;-68
2022/10/16 09:40:54;;;;;;;;;;;17.10;99.90;;;;;;6114165;23;19925;-70
2022/10/16 09:43:25;;;;;;;;;;;18.10;99.90;;;;;;6114130;23;20304;-69
2022/10/16 09:45:55;;;;;;;;;;;17.30;99.90;;;;;;6114759;23;19956;-71
2022/10/16 09:48:20;;;;;;;;;;;17.40;99.90;;;;;;6115869;23;20019;-71
2022/10/16 09:50:55;;;;;;;;;;;17.80;99.90;;;;;;6113854;23;19965;-63
2022/10/16 09:53:22;;;;;;;;;;;17.60;99.90;;;;;;6111708;23;20216;-71
2022/10/16 09:55:49;;;;;;;;;;;17.80;99.90;;;;;;6115393;23;20000;-65
2022/10/16 09:58:14;;;;;;;;;;;18.00;99.90;;;;;;6114454;23;19947;-70
2022/10/16 10:00:41;;;;;;;;;;;17.80;99.90;;;;;;6114762;23;20288;-67
2022/10/16 10:03:10;;;;;;;;;;;17.90;99.90;;;;;;6115490;23;19978;-71
2022/10/16 10:05:39;;;;;;;;;;;17.40;99.90;;;;;;6111427;23;19976;-71
2022/10/16 10:08:05;;;;;;;;;;;17.40;99.90;;;;;;6112681;23;20002;-68
2022/10/16 10:10:41;;;;;;;;;;;17.40;99.90;;;;;;6113801;23;19988;-69
2022/10/16 10:13:20;;;;;;;;;;;17.20;99.90;;;;;;6114038;23;19932;-71
2022/10/16 10:15:46;;;;;;;;;;;17.40;99.90;;;;;;6114605;23;19931;-68
2022/10/16 10:18:16;;;;;;;;;;;17.20;99.90;;;;;;6112029;23;19999;-71
2022/10/16 10:20:42;;;;;;;;;;;17.10;99.90;;;;;;6114414;23;19925;-65
2022/10/16 10:23:23;;;;;;;;;;;17.40;99.90;;;;;;6113639;23;19928;-67
2022/10/16 10:25:55;;;;;;;;;;;17.20;99.90;;;;;;6113569;23;19925;-67
2022/10/16 10:28:26;;;;;;;;;;;17.70;99.90;;;;;;6113274;23;19995;-71
2022/10/16 10:31:01;;;;;;;;;;;18.00;99.90;;;;;;6114419;23;19931;-70
2022/10/16 10:33:30;;;;;;;;;;;17.80;99.90;;;;;;6113769;23;20354;-71
2022/10/16 10:36:08;;;;;;;;;;;17.50;99.90;;;;;;6089184;23;19925;-69
2022/10/16 10:38:38;;;;;;;;;;;17.80;99.90;;;;;;6114589;23;20350;-66
2022/10/16 10:41:24;;;;;;;;;;;17.50;99.90;;;;;;6115216;23;19939;-67
2022/10/16 10:43:50;;;;;;;;;;;17.70;99.90;;;;;;6113693;23;19935;-65
2022/10/16 10:46:22;;;;;;;;;;;17.90;99.90;;;;;;6113350;23;19925;-66
2022/10/16 10:49:06;;;;;;;;;;;17.70;99.90;;;;;;6114573;23;19925;-64
2022/10/16 10:51:49;;;;;;;;;;;18.10;99.90;;;;;;6114270;23;20355;-65
2022/10/16 10:54:18;;;;;;;;;;;18.20;99.90;;;;;;6114552;23;19932;-68
2022/10/16 10:56:53;;;;;;;;;;;18.40;99.90;;;;;;6114239;23;19990;-65
2022/10/16 10:59:30;;;;;;;;;;;18.20;99.90;;;;;;6112707;23;19932;-64
2022/10/16 11:02:01;;;;;;;;;;;19.80;99.90;;;;;;6114418;23;19970;-68
2022/10/16 11:04:32;;;;;;;;;;;19.20;99.90;;;;;;6114582;23;19971;-65
2022/10/16 11:07:05;;;;;;;;;;;19.10;99.90;;;;;;6113189;23;19924;-66
2022/10/16 11:09:36;;;;;;;;;;;19.20;99.90;;;;;;6114058;23;20252;-65
2022/10/16 11:12:10;;;;;;;;;;;19.10;99.90;;;;;;6114015;23;19972;-67
2022/10/16 11:14:51;;;;;;;;;;;18.80;99.90;;;;;;6114439;23;19996;-67
2022/10/16 11:17:19;;;;;;;;;;;19.10;99.90;;;;;;6114267;23;20259;-66
2022/10/16 11:19:58;;;;;;;;;;;19.30;99.90;;;;;;6113953;23;19925;-69
2022/10/16 11:22:37;;;;;;;;;;;19.30;99.90;;;;;;6115769;23;19949;-65
2022/10/16 11:25:21;;;;;;;;;;;18.90;99.90;;;;;;6115851;23;19978;-68
2022/10/16 11:27:46;;;;;;;;;;;18.60;99.90;;;;;;6116460;23;19971;-65
2022/10/16 11:30:15;;;;;;;;;;;18.50;99.90;;;;;;6114559;23;19924;-66
2022/10/16 11:32:50;;;;;;;;;;;18.40;99.90;;;;;;6115783;23;19925;-66
2022/10/16 11:35:45;;;;;;;;;;;18.50;99.90;;;;;;6116202;23;19924;-68
2022/10/16 11:38:14;;;;;;;;;;;18.00;99.90;;;;;;6142775;23;19920;-69
2022/10/16 11:40:41;;;;;;;;;;;17.70;99.90;;;;;;6114800;23;19935;-69
2022/10/16 11:43:14;;;;;;;;;;;17.40;99.90;;;;;;6116060;23;19925;-65
2022/10/16 11:45:43;;;;;;;;;;;17.60;99.90;;;;;;6115658;23;19975;-65
2022/10/16 11:48:14;;;;;;;;;;;17.70;99.90;;;;;;6115521;23;20385;-70
2022/10/16 11:50:45;;;;;;;;;;;17.70;99.90;;;;;;6112474;23;19968;-64
2022/10/16 11:53:15;;;;;;;;;;;17.80;99.90;;;;;;6115255;23;19932;-66
2022/10/16 11:55:42;;;;;;;;;;;17.90;99.90;;;;;;6115373;23;20280;-65
2022/10/16 11:58:28;;;;;;;;;;;18.00;99.90;;;;;;6116483;23;19996;-65
2022/10/16 12:00:56;;;;;;;;;;;18.30;99.90;;;;;;6115130;23;19924;-66
2022/10/16 12:03:28;;;;;;;;;;;18.30;99.90;;;;;;6116038;23;19924;-65
2022/10/16 12:06:11;;;;;;;;;;;18.40;99.90;;;;;;6115564;23;19967;-68
2022/10/16 12:08:37;;;;;;;;;;;18.30;99.90;;;;;;6115740;23;19959;-66
2022/10/16 12:11:07;;;;;;;;;;;18.60;99.90;;;;;;6115181;23;19964;-67
2022/10/16 12:13:37;;;;;;;;;;;18.60;99.90;;;;;;6116017;23;19970;-65
2022/10/16 12:16:06;;;;;;;;;;;18.50;99.90;;;;;;6115601;23;19925;-70
2022/10/16 12:18:31;;;;;;;;;;;18.70;99.90;;;;;;6115573;23;20343;-65
2022/10/16 12:21:05;;;;;;;;;;;18.90;99.90;;;;;;6115989;23;19971;-66
2022/10/16 12:23:31;;;;;;;;;;;19.50;99.90;;;;;;6114452;23;20339;-66
2022/10/16 12:25:59;;;;;;;;;;;20.20;99.90;;;;;;6114243;23;20403;-65
2022/10/16 12:28:28;;;;;;;;;;;19.70;99.90;;;;;;6115475;23;19925;-67
2022/10/16 12:30:55;;;;;;;;;;;19.30;99.90;;;;;;6116093;23;19970;-70
2022/10/16 12:33:25;;;;;;;;;;;19.20;99.90;;;;;;6114843;23;19982;-66
2022/10/16 12:35:51;;;;;;;;;;;19.20;99.90;;;;;;6114338;23;19935;-64
2022/10/16 12:38:19;;;;;;;;;;;19.20;99.90;;;;;;6115620;23;20000;-67
2022/10/16 12:40:47;;;;;;;;;;;19.00;99.90;;;;;;6115845;23;19925;-68
2022/10/16 12:43:24;;;;;;;;;;;18.80;99.90;;;;;;6115944;23;19970;-70
2022/10/16 12:46:04;;;;;;;;;;;18.80;99.90;;;;;;6115863;23;20371;-71
2022/10/16 12:48:30;;;;;;;;;;;19.10;99.90;;;;;;6115069;23;20263;-66
2022/10/16 12:50:56;;;;;;;;;;;18.90;99.90;;;;;;6116260;23;19925;-69
2022/10/16 12:53:23;;;;;;;;;;;19.10;99.90;;;;;;6115561;23;19932;-66
2022/10/16 12:55:56;;;;;;;;;;;19.20;99.90;;;;;;6115343;23;19931;-67
2022/10/16 12:58:42;;;;;;;;;;;19.20;99.90;;;;;;6116390;23;19924;-72
2022/10/16 13:01:16;;;;;;;;;;;19.40;99.90;;;;;;6120366;23;20343;-66
2022/10/16 13:03:42;;;;;;;;;;;19.40;99.90;;;;;;6115389;23;20259;-67
2022/10/16 13:06:26;;;;;;;;;;;19.70;99.90;;;;;;6115561;23;19929;-70
2022/10/16 13:09:20;;;;;;;;;;;19.50;99.90;;;;;;6112756;23;20335;-65
2022/10/16 13:12:08;;;;;;;;;;;19.60;99.90;;;;;;6120626;23;19932;-68
2022/10/16 13:14:52;;;;;;;;;;;20.00;99.90;;;;;;6115001;23;19948;-66
2022/10/16 13:17:29;;;;;;;;;;;20.10;99.90;;;;;;6114997;23;19925;-68
2022/10/16 13:20:14;;;;;;;;;;;20.60;99.90;;;;;;6114382;23;19932;-70
2022/10/16 13:22:58;;;;;;;;;;;20.90;99.90;;;;;;6114032;23;20000;-71
2022/10/16 13:25:32;;;;;;;;;;;20.70;99.90;;;;;;6112812;23;19932;-71
2022/10/16 13:28:05;;;;;;;;;;;21.80;99.90;;;;;;6114662;23;19925;-66
2022/10/16 13:30:42;;;;;;;;;;;23.20;99.90;;;;;;6114183;23;20247;-70
2022/10/16 13:33:13;;;;;;;;;;;22.00;99.90;;;;;;6113811;23;19995;-69
2022/10/16 13:35:46;;;;;;;;;;;21.00;99.90;;;;;;6114600;23;19932;-68
2022/10/16 13:38:13;;;;;;;;;;;20.80;99.90;;;;;;6113875;23;19947;-71
2022/10/16 13:40:48;;;;;;;;;;;21.10;99.90;;;;;;6113898;23;19924;-68
2022/10/16 13:43:14;;;;;;;;;;;20.80;99.90;;;;;;6113727;23;19931;-69
2022/10/16 13:45:39;;;;;;;;;;;20.20;99.90;;;;;;6113428;23;19929;-68
2022/10/16 13:48:06;;;;;;;;;;;20.20;99.90;;;;;;6113841;23;19932;-67
2022/10/16 13:50:31;;;;;;;;;;;20.40;99.90;;;;;;6113208;23;20419;-68
2022/10/16 13:53:12;;;;;;;;;;;20.30;99.90;;;;;;6114509;23;19924;-69
2022/10/16 13:55:37;;;;;;;;;;;20.10;99.90;;;;;;6113961;23;20405;-68
2022/10/16 13:58:13;;;;;;;;;;;19.60;99.90;;;;;;6114689;23;20000;-69
2022/10/16 14:00:38;;;;;;;;;;;19.50;99.90;;;;;;6109766;23;20331;-68
2022/10/16 14:03:06;;;;;;;;;;;19.40;99.90;;;;;;6113779;23;19925;-67
2022/10/16 14:05:32;;;;;;;;;;;19.10;99.90;;;;;;6111997;23;19929;-67
2022/10/16 14:07:58;;;;;;;;;;;19.30;99.90;;;;;;6112750;23;19925;-67
2022/10/16 14:10:24;;;;;;;;;;;19.10;99.90;;;;;;6112037;23;19925;-68
2022/10/16 14:13:16;;;;;;;;;;;19.10;99.90;;;;;;6110774;23;20011;-68
2022/10/16 14:15:46;;;;;;;;;;;19.10;99.90;;;;;;6110128;23;19999;-64
2022/10/16 14:18:20;;;;;;;;;;;19.40;99.90;;;;;;6112841;23;19921;-67
2022/10/16 14:20:45;;;;;;;;;;;19.30;99.90;;;;;;6112104;23;19925;-67
2022/10/16 14:23:28;;;;;;;;;;;19.40;99.90;;;;;;6112750;23;19925;-70
2022/10/16 14:26:04;;;;;;;;;;;19.30;99.90;;;;;;6110993;23;19932;-65